sensor_id;sensor_type;location;lat;lon;timestamp;P1;durP1;ratioP1;P2;durP2;ratioP2
16870;SDS011;8552;48.120;-1.456;2023-05-23T00:02:13;12.07;;;8.93;;
16870;SDS011;8552;48.120;-1.456;2023-05-23T00:04:39;13.35;;;8.52;;
16870;SDS011;8552;48.120;-1.456;2023-05-23T00:07:06;12.77;;;9.13;;
16870;SDS011;8552;48.120;-1.456;2023-05-23T00:09:32;11.02;;;8.18;;
16870;SDS011;8552;48.120;-1.456;2023-05-23T00:11:58;12.45;;;8.73;;
16870;SDS011;8552;48.120;-1.456;2023-05-23T00:14:24;13.02;;;8.43;;
16870;SDS011;8552;48.120;-1.456;2023-05-23T00:16:50;13.88;;;8.95;;
16870;SDS011;8552;48.120;-1.456;2023-05-23T00:19:16;11.13;;;7.97;;
16870;SDS011;8552;48.120;-1.456;2023-05-23T00:21:42;11.25;;;8.02;;
16870;SDS011;8552;48.120;-1.456;2023-05-23T00:24:08;11.95;;;8.70;;
16870;SDS011;8552;48.120;-1.456;2023-05-23T00:26:34;12.40;;;8.95;;
16870;SDS011;8552;48.120;-1.456;2023-05-23T00:29:00;13.38;;;8.93;;
16870;SDS011;8552;48.120;-1.456;2023-05-23T00:31:26;15.43;;;8.98;;
16870;SDS011;8552;48.120;-1.456;2023-05-23T00:33:52;12.77;;;9.05;;
16870;SDS011;8552;48.120;-1.456;2023-05-23T00:36:17;12.82;;;7.85;;
16870;SDS011;8552;48.120;-1.456;2023-05-23T00:38:43;10.43;;;8.50;;
16870;SDS011;8552;48.120;-1.456;2023-05-23T00:41:12;14.18;;;8.48;;
16870;SDS011;8552;48.120;-1.456;2023-05-23T00:43:37;12.15;;;8.57;;
16870;SDS011;8552;48.120;-1.456;2023-05-23T00:46:03;13.20;;;8.60;;
16870;SDS011;8552;48.120;-1.456;2023-05-23T00:48:29;15.35;;;9.85;;
16870;SDS011;8552;48.120;-1.456;2023-05-23T00:50:55;12.73;;;8.25;;
16870;SDS011;8552;48.120;-1.456;2023-05-23T00:53:21;12.80;;;8.32;;
16870;SDS011;8552;48.120;-1.456;2023-05-23T00:55:47;12.63;;;8.88;;
16870;SDS011;8552;48.120;-1.456;2023-05-23T00:58:13;11.60;;;8.15;;
16870;SDS011;8552;48.120;-1.456;2023-05-23T01:00:40;10.93;;;7.80;;
16870;SDS011;8552;48.120;-1.456;2023-05-23T01:03:06;11.40;;;8.32;;
16870;SDS011;8552;48.120;-1.456;2023-05-23T01:05:32;15.20;;;10.00;;
16870;SDS011;8552;48.120;-1.456;2023-05-23T01:07:57;16.55;;;8.75;;
16870;SDS011;8552;48.120;-1.456;2023-05-23T01:10:28;13.20;;;8.18;;
16870;SDS011;8552;48.120;-1.456;2023-05-23T01:13:04;14.95;;;8.50;;
16870;SDS011;8552;48.120;-1.456;2023-05-23T01:18:12;13.15;;;9.05;;
16870;SDS011;8552;48.120;-1.456;2023-05-23T01:20:45;14.23;;;9.38;;
16870;SDS011;8552;48.120;-1.456;2023-05-23T01:25:53;14.30;;;9.18;;
16870;SDS011;8552;48.120;-1.456;2023-05-23T01:28:28;17.30;;;8.85;;
16870;SDS011;8552;48.120;-1.456;2023-05-23T01:30:57;13.52;;;8.85;;
16870;SDS011;8552;48.120;-1.456;2023-05-23T01:33:27;13.05;;;8.38;;
16870;SDS011;8552;48.120;-1.456;2023-05-23T01:35:55;11.65;;;8.48;;
16870;SDS011;8552;48.120;-1.456;2023-05-23T01:38:24;17.77;;;8.88;;
16870;SDS011;8552;48.120;-1.456;2023-05-23T01:40:50;11.35;;;8.60;;
16870;SDS011;8552;48.120;-1.456;2023-05-23T01:43:16;14.77;;;8.57;;
16870;SDS011;8552;48.120;-1.456;2023-05-23T01:45:41;15.77;;;8.52;;
16870;SDS011;8552;48.120;-1.456;2023-05-23T01:48:08;11.20;;;8.23;;
16870;SDS011;8552;48.120;-1.456;2023-05-23T01:50:35;13.05;;;9.63;;
16870;SDS011;8552;48.120;-1.456;2023-05-23T01:53:01;12.75;;;8.65;;
16870;SDS011;8552;48.120;-1.456;2023-05-23T01:55:28;14.30;;;9.38;;
16870;SDS011;8552;48.120;-1.456;2023-05-23T01:57:55;11.48;;;7.95;;
16870;SDS011;8552;48.120;-1.456;2023-05-23T02:00:22;15.13;;;8.73;;
16870;SDS011;8552;48.120;-1.456;2023-05-23T02:02:48;16.08;;;9.20;;
16870;SDS011;8552;48.120;-1.456;2023-05-23T02:05:14;14.32;;;9.02;;
16870;SDS011;8552;48.120;-1.456;2023-05-23T02:07:39;12.95;;;9.30;;
16870;SDS011;8552;48.120;-1.456;2023-05-23T02:10:06;14.25;;;8.55;;
16870;SDS011;8552;48.120;-1.456;2023-05-23T02:12:33;11.82;;;8.48;;
16870;SDS011;8552;48.120;-1.456;2023-05-23T02:14:58;13.57;;;8.68;;
16870;SDS011;8552;48.120;-1.456;2023-05-23T02:17:24;11.75;;;7.88;;
16870;SDS011;8552;48.120;-1.456;2023-05-23T02:19:50;13.45;;;8.45;;
16870;SDS011;8552;48.120;-1.456;2023-05-23T02:22:15;11.50;;;8.40;;
16870;SDS011;8552;48.120;-1.456;2023-05-23T02:24:41;10.90;;;7.45;;
16870;SDS011;8552;48.120;-1.456;2023-05-23T02:27:07;13.73;;;7.82;;
16870;SDS011;8552;48.120;-1.456;2023-05-23T02:29:33;9.77;;;7.65;;
16870;SDS011;8552;48.120;-1.456;2023-05-23T02:31:58;12.85;;;7.82;;
16870;SDS011;8552;48.120;-1.456;2023-05-23T02:34:24;13.10;;;8.77;;
16870;SDS011;8552;48.120;-1.456;2023-05-23T02:36:50;14.02;;;8.27;;
16870;SDS011;8552;48.120;-1.456;2023-05-23T02:39:16;14.73;;;9.48;;
16870;SDS011;8552;48.120;-1.456;2023-05-23T02:41:42;11.73;;;9.50;;
16870;SDS011;8552;48.120;-1.456;2023-05-23T02:44:07;15.88;;;9.60;;
16870;SDS011;8552;48.120;-1.456;2023-05-23T02:46:33;16.23;;;8.80;;
16870;SDS011;8552;48.120;-1.456;2023-05-23T02:48:59;12.60;;;9.05;;
16870;SDS011;8552;48.120;-1.456;2023-05-23T02:51:25;12.55;;;9.15;;
16870;SDS011;8552;48.120;-1.456;2023-05-23T02:53:50;13.85;;;9.77;;
16870;SDS011;8552;48.120;-1.456;2023-05-23T02:56:16;11.15;;;7.47;;
16870;SDS011;8552;48.120;-1.456;2023-05-23T02:58:42;13.43;;;8.73;;
16870;SDS011;8552;48.120;-1.456;2023-05-23T03:01:08;10.88;;;8.43;;
16870;SDS011;8552;48.120;-1.456;2023-05-23T03:03:34;11.88;;;8.60;;
16870;SDS011;8552;48.120;-1.456;2023-05-23T03:06:01;17.05;;;8.77;;
16870;SDS011;8552;48.120;-1.456;2023-05-23T03:08:30;12.57;;;8.07;;
16870;SDS011;8552;48.120;-1.456;2023-05-23T03:10:56;11.15;;;8.00;;
16870;SDS011;8552;48.120;-1.456;2023-05-23T03:13:21;14.75;;;9.90;;
16870;SDS011;8552;48.120;-1.456;2023-05-23T03:15:47;11.73;;;7.68;;
16870;SDS011;8552;48.120;-1.456;2023-05-23T03:18:12;11.15;;;8.40;;
16870;SDS011;8552;48.120;-1.456;2023-05-23T03:20:38;12.20;;;8.85;;
16870;SDS011;8552;48.120;-1.456;2023-05-23T03:23:04;10.88;;;6.53;;
16870;SDS011;8552;48.120;-1.456;2023-05-23T03:25:29;12.27;;;8.15;;
16870;SDS011;8552;48.120;-1.456;2023-05-23T03:27:55;9.77;;;7.63;;
16870;SDS011;8552;48.120;-1.456;2023-05-23T03:30:21;14.35;;;8.63;;
16870;SDS011;8552;48.120;-1.456;2023-05-23T03:32:46;15.07;;;9.43;;
16870;SDS011;8552;48.120;-1.456;2023-05-23T03:35:12;13.38;;;9.15;;
16870;SDS011;8552;48.120;-1.456;2023-05-23T03:37:38;14.70;;;9.10;;
16870;SDS011;8552;48.120;-1.456;2023-05-23T03:40:04;15.27;;;9.60;;
16870;SDS011;8552;48.120;-1.456;2023-05-23T03:42:31;12.38;;;9.63;;
16870;SDS011;8552;48.120;-1.456;2023-05-23T03:44:57;15.73;;;9.80;;
16870;SDS011;8552;48.120;-1.456;2023-05-23T03:47:22;15.10;;;10.90;;
16870;SDS011;8552;48.120;-1.456;2023-05-23T03:49:48;17.13;;;11.65;;
16870;SDS011;8552;48.120;-1.456;2023-05-23T03:52:14;19.08;;;11.25;;
16870;SDS011;8552;48.120;-1.456;2023-05-23T03:54:40;18.92;;;10.95;;
16870;SDS011;8552;48.120;-1.456;2023-05-23T03:57:06;18.58;;;12.63;;
16870;SDS011;8552;48.120;-1.456;2023-05-23T03:59:32;20.58;;;12.73;;
16870;SDS011;8552;48.120;-1.456;2023-05-23T04:01:58;17.40;;;11.95;;
16870;SDS011;8552;48.120;-1.456;2023-05-23T04:04:25;21.08;;;13.68;;
16870;SDS011;8552;48.120;-1.456;2023-05-23T04:06:51;17.42;;;12.68;;
16870;SDS011;8552;48.120;-1.456;2023-05-23T04:09:17;18.08;;;12.88;;
16870;SDS011;8552;48.120;-1.456;2023-05-23T04:11:43;19.33;;;13.23;;
16870;SDS011;8552;48.120;-1.456;2023-05-23T04:14:08;20.33;;;12.27;;
16870;SDS011;8552;48.120;-1.456;2023-05-23T04:16:35;18.20;;;12.98;;
16870;SDS011;8552;48.120;-1.456;2023-05-23T04:19:02;18.20;;;12.38;;
16870;SDS011;8552;48.120;-1.456;2023-05-23T04:21:28;21.02;;;12.82;;
16870;SDS011;8552;48.120;-1.456;2023-05-23T04:23:55;18.33;;;11.88;;
16870;SDS011;8552;48.120;-1.456;2023-05-23T04:26:20;18.58;;;11.68;;
16870;SDS011;8552;48.120;-1.456;2023-05-23T04:28:46;23.27;;;12.43;;
16870;SDS011;8552;48.120;-1.456;2023-05-23T04:31:12;22.38;;;13.10;;
16870;SDS011;8552;48.120;-1.456;2023-05-23T04:33:38;20.80;;;11.20;;
16870;SDS011;8552;48.120;-1.456;2023-05-23T04:36:04;18.05;;;11.32;;
16870;SDS011;8552;48.120;-1.456;2023-05-23T04:38:33;16.42;;;10.98;;
16870;SDS011;8552;48.120;-1.456;2023-05-23T04:40:59;15.27;;;9.75;;
16870;SDS011;8552;48.120;-1.456;2023-05-23T04:43:25;17.52;;;10.48;;
16870;SDS011;8552;48.120;-1.456;2023-05-23T04:45:51;15.38;;;10.25;;
16870;SDS011;8552;48.120;-1.456;2023-05-23T04:48:18;14.23;;;9.63;;
16870;SDS011;8552;48.120;-1.456;2023-05-23T04:50:45;15.10;;;8.75;;
16870;SDS011;8552;48.120;-1.456;2023-05-23T04:53:12;16.15;;;10.10;;
16870;SDS011;8552;48.120;-1.456;2023-05-23T04:55:38;15.45;;;8.90;;
16870;SDS011;8552;48.120;-1.456;2023-05-23T04:58:04;14.15;;;8.52;;
16870;SDS011;8552;48.120;-1.456;2023-05-23T05:00:29;14.07;;;8.52;;
16870;SDS011;8552;48.120;-1.456;2023-05-23T05:02:55;16.98;;;9.02;;
16870;SDS011;8552;48.120;-1.456;2023-05-23T05:05:21;15.02;;;8.23;;
16870;SDS011;8552;48.120;-1.456;2023-05-23T05:07:47;14.55;;;7.78;;
16870;SDS011;8552;48.120;-1.456;2023-05-23T05:10:13;13.98;;;7.97;;
16870;SDS011;8552;48.120;-1.456;2023-05-23T05:12:44;10.38;;;7.32;;
16870;SDS011;8552;48.120;-1.456;2023-05-23T05:15:16;12.35;;;7.47;;
16870;SDS011;8552;48.120;-1.456;2023-05-23T05:17:42;10.45;;;7.25;;
16870;SDS011;8552;48.120;-1.456;2023-05-23T05:20:08;11.43;;;6.78;;
16870;SDS011;8552;48.120;-1.456;2023-05-23T05:22:38;13.25;;;7.03;;
16870;SDS011;8552;48.120;-1.456;2023-05-23T05:25:08;11.02;;;6.38;;
16870;SDS011;8552;48.120;-1.456;2023-05-23T05:27:34;9.40;;;6.82;;
16870;SDS011;8552;48.120;-1.456;2023-05-23T05:30:06;7.55;;;5.70;;
16870;SDS011;8552;48.120;-1.456;2023-05-23T05:32:33;7.40;;;5.03;;
16870;SDS011;8552;48.120;-1.456;2023-05-23T05:35:01;8.60;;;5.25;;
16870;SDS011;8552;48.120;-1.456;2023-05-23T05:37:28;9.18;;;5.30;;
16870;SDS011;8552;48.120;-1.456;2023-05-23T05:39:54;8.13;;;5.38;;
16870;SDS011;8552;48.120;-1.456;2023-05-23T05:42:20;8.65;;;5.28;;
16870;SDS011;8552;48.120;-1.456;2023-05-23T05:44:46;7.70;;;5.07;;
16870;SDS011;8552;48.120;-1.456;2023-05-23T05:47:13;9.63;;;5.00;;
16870;SDS011;8552;48.120;-1.456;2023-05-23T05:49:38;7.13;;;5.30;;
16870;SDS011;8552;48.120;-1.456;2023-05-23T05:52:05;9.68;;;4.70;;
16870;SDS011;8552;48.120;-1.456;2023-05-23T05:54:32;6.50;;;4.07;;
16870;SDS011;8552;48.120;-1.456;2023-05-23T05:56:58;6.45;;;4.47;;
16870;SDS011;8552;48.120;-1.456;2023-05-23T05:59:23;7.65;;;4.03;;
16870;SDS011;8552;48.120;-1.456;2023-05-23T06:01:49;8.18;;;4.68;;
16870;SDS011;8552;48.120;-1.456;2023-05-23T06:04:16;8.30;;;4.45;;
16870;SDS011;8552;48.120;-1.456;2023-05-23T06:06:42;6.20;;;4.20;;
16870;SDS011;8552;48.120;-1.456;2023-05-23T06:09:07;12.80;;;5.00;;
16870;SDS011;8552;48.120;-1.456;2023-05-23T06:11:34;5.88;;;3.90;;
16870;SDS011;8552;48.120;-1.456;2023-05-23T06:14:03;11.77;;;4.97;;
16870;SDS011;8552;48.120;-1.456;2023-05-23T06:16:29;6.85;;;4.72;;
16870;SDS011;8552;48.120;-1.456;2023-05-23T06:18:54;8.00;;;4.32;;
16870;SDS011;8552;48.120;-1.456;2023-05-23T06:21:20;6.40;;;5.00;;
16870;SDS011;8552;48.120;-1.456;2023-05-23T06:23:46;8.13;;;4.82;;
16870;SDS011;8552;48.120;-1.456;2023-05-23T06:26:12;6.93;;;4.05;;
16870;SDS011;8552;48.120;-1.456;2023-05-23T06:28:38;7.97;;;4.20;;
16870;SDS011;8552;48.120;-1.456;2023-05-23T06:31:04;6.15;;;4.30;;
16870;SDS011;8552;48.120;-1.456;2023-05-23T06:33:29;5.97;;;4.50;;
16870;SDS011;8552;48.120;-1.456;2023-05-23T06:35:56;8.10;;;4.60;;
16870;SDS011;8552;48.120;-1.456;2023-05-23T06:38:21;6.70;;;4.38;;
16870;SDS011;8552;48.120;-1.456;2023-05-23T06:40:47;9.80;;;4.78;;
16870;SDS011;8552;48.120;-1.456;2023-05-23T06:43:13;5.50;;;4.43;;
16870;SDS011;8552;48.120;-1.456;2023-05-23T06:45:38;7.18;;;4.88;;
16870;SDS011;8552;48.120;-1.456;2023-05-23T06:48:04;10.80;;;5.03;;
16870;SDS011;8552;48.120;-1.456;2023-05-23T06:50:30;8.55;;;4.78;;
16870;SDS011;8552;48.120;-1.456;2023-05-23T06:52:56;7.45;;;4.82;;
16870;SDS011;8552;48.120;-1.456;2023-05-23T06:55:22;8.52;;;4.65;;
16870;SDS011;8552;48.120;-1.456;2023-05-23T06:57:48;8.18;;;5.28;;
16870;SDS011;8552;48.120;-1.456;2023-05-23T07:00:17;11.45;;;5.18;;
16870;SDS011;8552;48.120;-1.456;2023-05-23T07:02:42;6.70;;;4.90;;
16870;SDS011;8552;48.120;-1.456;2023-05-23T07:05:12;6.38;;;4.53;;
16870;SDS011;8552;48.120;-1.456;2023-05-23T07:07:39;9.73;;;5.75;;
16870;SDS011;8552;48.120;-1.456;2023-05-23T07:10:05;10.45;;;5.93;;
16870;SDS011;8552;48.120;-1.456;2023-05-23T07:12:31;8.07;;;5.50;;
16870;SDS011;8552;48.120;-1.456;2023-05-23T07:14:57;8.95;;;6.00;;
16870;SDS011;8552;48.120;-1.456;2023-05-23T07:17:23;9.23;;;5.80;;
16870;SDS011;8552;48.120;-1.456;2023-05-23T07:19:48;9.55;;;6.88;;
16870;SDS011;8552;48.120;-1.456;2023-05-23T07:22:14;10.25;;;5.75;;
16870;SDS011;8552;48.120;-1.456;2023-05-23T07:24:40;10.45;;;6.55;;
16870;SDS011;8552;48.120;-1.456;2023-05-23T07:27:05;10.40;;;6.13;;
16870;SDS011;8552;48.120;-1.456;2023-05-23T07:29:31;10.43;;;5.90;;
16870;SDS011;8552;48.120;-1.456;2023-05-23T07:31:57;11.32;;;6.95;;
16870;SDS011;8552;48.120;-1.456;2023-05-23T07:34:23;13.10;;;6.57;;
16870;SDS011;8552;48.120;-1.456;2023-05-23T07:36:50;10.98;;;5.97;;
16870;SDS011;8552;48.120;-1.456;2023-05-23T07:39:16;12.63;;;6.47;;
16870;SDS011;8552;48.120;-1.456;2023-05-23T07:41:46;11.02;;;7.28;;
16870;SDS011;8552;48.120;-1.456;2023-05-23T07:44:15;14.65;;;6.53;;
16870;SDS011;8552;48.120;-1.456;2023-05-23T07:46:42;9.52;;;6.30;;
16870;SDS011;8552;48.120;-1.456;2023-05-23T07:49:08;12.10;;;7.13;;
16870;SDS011;8552;48.120;-1.456;2023-05-23T07:51:34;10.88;;;7.25;;
16870;SDS011;8552;48.120;-1.456;2023-05-23T07:54:00;21.05;;;14.30;;
16870;SDS011;8552;48.120;-1.456;2023-05-23T07:56:25;13.30;;;9.38;;
16870;SDS011;8552;48.120;-1.456;2023-05-23T07:58:51;11.32;;;7.85;;
16870;SDS011;8552;48.120;-1.456;2023-05-23T08:01:17;13.38;;;7.45;;
16870;SDS011;8552;48.120;-1.456;2023-05-23T08:03:43;12.35;;;7.78;;
16870;SDS011;8552;48.120;-1.456;2023-05-23T08:06:08;11.30;;;7.45;;
16870;SDS011;8552;48.120;-1.456;2023-05-23T08:08:34;12.57;;;7.97;;
16870;SDS011;8552;48.120;-1.456;2023-05-23T08:11:00;15.50;;;8.23;;
16870;SDS011;8552;48.120;-1.456;2023-05-23T08:13:26;10.85;;;7.85;;
16870;SDS011;8552;48.120;-1.456;2023-05-23T08:15:52;13.18;;;7.68;;
16870;SDS011;8552;48.120;-1.456;2023-05-23T08:18:18;12.82;;;8.18;;
16870;SDS011;8552;48.120;-1.456;2023-05-23T08:20:43;11.57;;;8.88;;
16870;SDS011;8552;48.120;-1.456;2023-05-23T08:23:10;17.15;;;9.52;;
16870;SDS011;8552;48.120;-1.456;2023-05-23T08:25:36;13.98;;;9.73;;
16870;SDS011;8552;48.120;-1.456;2023-05-23T08:28:02;12.88;;;9.95;;
16870;SDS011;8552;48.120;-1.456;2023-05-23T08:30:28;11.88;;;8.55;;
16870;SDS011;8552;48.120;-1.456;2023-05-23T08:32:55;10.70;;;8.25;;
16870;SDS011;8552;48.120;-1.456;2023-05-23T08:35:21;12.95;;;8.73;;
16870;SDS011;8552;48.120;-1.456;2023-05-23T08:37:48;12.65;;;9.15;;
16870;SDS011;8552;48.120;-1.456;2023-05-23T08:40:18;15.32;;;9.10;;
16870;SDS011;8552;48.120;-1.456;2023-05-23T08:42:48;11.93;;;8.82;;
16870;SDS011;8552;48.120;-1.456;2023-05-23T08:45:15;13.70;;;9.32;;
16870;SDS011;8552;48.120;-1.456;2023-05-23T08:47:48;12.07;;;9.02;;
16870;SDS011;8552;48.120;-1.456;2023-05-23T08:50:20;11.90;;;9.13;;
16870;SDS011;8552;48.120;-1.456;2023-05-23T08:53:08;14.23;;;9.27;;
16870;SDS011;8552;48.120;-1.456;2023-05-23T08:55:35;11.75;;;9.02;;
16870;SDS011;8552;48.120;-1.456;2023-05-23T08:58:03;13.32;;;9.05;;
16870;SDS011;8552;48.120;-1.456;2023-05-23T09:00:32;11.25;;;8.88;;
16870;SDS011;8552;48.120;-1.456;2023-05-23T09:02:59;15.27;;;9.10;;
16870;SDS011;8552;48.120;-1.456;2023-05-23T09:05:31;18.83;;;10.32;;
16870;SDS011;8552;48.120;-1.456;2023-05-23T09:08:00;13.15;;;9.20;;
16870;SDS011;8552;48.120;-1.456;2023-05-23T09:10:29;12.95;;;10.02;;
16870;SDS011;8552;48.120;-1.456;2023-05-23T09:13:05;11.75;;;9.15;;
16870;SDS011;8552;48.120;-1.456;2023-05-23T09:15:35;14.45;;;9.82;;
16870;SDS011;8552;48.120;-1.456;2023-05-23T09:18:11;13.20;;;9.38;;
16870;SDS011;8552;48.120;-1.456;2023-05-23T09:20:39;11.50;;;8.75;;
16870;SDS011;8552;48.120;-1.456;2023-05-23T09:23:06;14.70;;;9.20;;
16870;SDS011;8552;48.120;-1.456;2023-05-23T09:25:48;13.93;;;9.10;;
16870;SDS011;8552;48.120;-1.456;2023-05-23T09:28:25;11.75;;;9.00;;
16870;SDS011;8552;48.120;-1.456;2023-05-23T09:30:59;15.65;;;9.25;;
16870;SDS011;8552;48.120;-1.456;2023-05-23T09:33:47;12.57;;;9.32;;
16870;SDS011;8552;48.120;-1.456;2023-05-23T09:36:18;13.98;;;10.15;;
16870;SDS011;8552;48.120;-1.456;2023-05-23T09:38:48;15.73;;;10.30;;
16870;SDS011;8552;48.120;-1.456;2023-05-23T09:41:23;15.95;;;10.25;;
16870;SDS011;8552;48.120;-1.456;2023-05-23T09:43:57;14.73;;;9.68;;
16870;SDS011;8552;48.120;-1.456;2023-05-23T09:46:33;14.88;;;10.18;;
16870;SDS011;8552;48.120;-1.456;2023-05-23T09:49:18;14.25;;;10.45;;
16870;SDS011;8552;48.120;-1.456;2023-05-23T09:52:00;13.98;;;10.80;;
16870;SDS011;8552;48.120;-1.456;2023-05-23T09:54:29;13.20;;;9.50;;
16870;SDS011;8552;48.120;-1.456;2023-05-23T09:56:57;15.77;;;10.43;;
16870;SDS011;8552;48.120;-1.456;2023-05-23T09:59:27;13.30;;;10.02;;
16870;SDS011;8552;48.120;-1.456;2023-05-23T10:02:03;17.98;;;11.05;;
16870;SDS011;8552;48.120;-1.456;2023-05-23T10:04:42;16.45;;;10.75;;
16870;SDS011;8552;48.120;-1.456;2023-05-23T10:07:12;13.38;;;9.85;;
16870;SDS011;8552;48.120;-1.456;2023-05-23T10:09:52;27.38;;;13.80;;
16870;SDS011;8552;48.120;-1.456;2023-05-23T10:15:07;14.40;;;10.15;;
16870;SDS011;8552;48.120;-1.456;2023-05-23T10:20:21;26.88;;;14.05;;
16870;SDS011;8552;48.120;-1.456;2023-05-23T10:22:51;16.73;;;11.97;;
16870;SDS011;8552;48.120;-1.456;2023-05-23T10:25:20;14.27;;;10.18;;
16870;SDS011;8552;48.120;-1.456;2023-05-23T10:27:52;15.93;;;9.82;;
16870;SDS011;8552;48.120;-1.456;2023-05-23T10:30:24;15.90;;;9.93;;
16870;SDS011;8552;48.120;-1.456;2023-05-23T10:32:52;17.10;;;10.32;;
16870;SDS011;8552;48.120;-1.456;2023-05-23T10:36:03;16.70;;;9.07;;
16870;SDS011;8552;48.120;-1.456;2023-05-23T10:38:27;19.58;;;10.18;;
16870;SDS011;8552;48.120;-1.456;2023-05-23T10:44:01;15.05;;;9.57;;
16870;SDS011;8552;48.120;-1.456;2023-05-23T10:49:40;15.68;;;9.75;;
16870;SDS011;8552;48.120;-1.456;2023-05-23T10:52:07;19.30;;;9.43;;
16870;SDS011;8552;48.120;-1.456;2023-05-23T10:54:43;15.63;;;9.95;;
16870;SDS011;8552;48.120;-1.456;2023-05-23T10:57:15;13.07;;;8.57;;
16870;SDS011;8552;48.120;-1.456;2023-05-23T10:59:48;13.23;;;9.32;;
16870;SDS011;8552;48.120;-1.456;2023-05-23T11:02:18;16.85;;;8.50;;
16870;SDS011;8552;48.120;-1.456;2023-05-23T11:05:09;16.90;;;9.40;;
16870;SDS011;8552;48.120;-1.456;2023-05-23T11:07:38;11.98;;;8.50;;
16870;SDS011;8552;48.120;-1.456;2023-05-23T11:10:08;13.85;;;8.65;;
16870;SDS011;8552;48.120;-1.456;2023-05-23T11:12:39;13.70;;;8.50;;
16870;SDS011;8552;48.120;-1.456;2023-05-23T11:17:52;9.15;;;7.55;;
16870;SDS011;8552;48.120;-1.456;2023-05-23T11:20:20;12.45;;;8.63;;
16870;SDS011;8552;48.120;-1.456;2023-05-23T11:23:02;13.98;;;8.45;;
16870;SDS011;8552;48.120;-1.456;2023-05-23T11:28:16;14.57;;;8.88;;
16870;SDS011;8552;48.120;-1.456;2023-05-23T11:30:47;15.38;;;8.23;;
16870;SDS011;8552;48.120;-1.456;2023-05-23T11:33:16;15.60;;;9.25;;
16870;SDS011;8552;48.120;-1.456;2023-05-23T11:35:49;12.05;;;8.65;;
16870;SDS011;8552;48.120;-1.456;2023-05-23T11:38:28;11.15;;;7.40;;
16870;SDS011;8552;48.120;-1.456;2023-05-23T11:40:56;10.38;;;7.93;;
16870;SDS011;8552;48.120;-1.456;2023-05-23T11:43:27;11.70;;;8.07;;
16870;SDS011;8552;48.120;-1.456;2023-05-23T11:45:56;12.38;;;7.78;;
16870;SDS011;8552;48.120;-1.456;2023-05-23T11:48:25;11.95;;;8.00;;
16870;SDS011;8552;48.120;-1.456;2023-05-23T11:50:58;14.32;;;7.75;;
16870;SDS011;8552;48.120;-1.456;2023-05-23T11:53:31;14.50;;;8.43;;
16870;SDS011;8552;48.120;-1.456;2023-05-23T11:56:00;12.82;;;8.05;;
16870;SDS011;8552;48.120;-1.456;2023-05-23T11:58:39;12.15;;;8.43;;
16870;SDS011;8552;48.120;-1.456;2023-05-23T12:01:08;10.52;;;7.90;;
16870;SDS011;8552;48.120;-1.456;2023-05-23T12:03:47;13.55;;;8.35;;
16870;SDS011;8552;48.120;-1.456;2023-05-23T12:06:18;12.23;;;7.70;;
16870;SDS011;8552;48.120;-1.456;2023-05-23T12:08:47;11.40;;;7.57;;
16870;SDS011;8552;48.120;-1.456;2023-05-23T12:11:19;9.25;;;7.68;;
16870;SDS011;8552;48.120;-1.456;2023-05-23T12:13:51;10.45;;;7.22;;
16870;SDS011;8552;48.120;-1.456;2023-05-23T12:16:20;10.50;;;7.40;;
16870;SDS011;8552;48.120;-1.456;2023-05-23T12:18:52;14.52;;;8.18;;
16870;SDS011;8552;48.120;-1.456;2023-05-23T12:21:23;10.65;;;7.68;;
16870;SDS011;8552;48.120;-1.456;2023-05-23T12:23:53;12.27;;;7.60;;
16870;SDS011;8552;48.120;-1.456;2023-05-23T12:26:22;9.57;;;7.40;;
16870;SDS011;8552;48.120;-1.456;2023-05-23T12:28:51;11.30;;;8.40;;
16870;SDS011;8552;48.120;-1.456;2023-05-23T12:31:23;12.95;;;8.10;;
16870;SDS011;8552;48.120;-1.456;2023-05-23T12:33:52;8.88;;;7.38;;
16870;SDS011;8552;48.120;-1.456;2023-05-23T12:36:23;11.48;;;7.43;;
16870;SDS011;8552;48.120;-1.456;2023-05-23T12:38:52;12.40;;;7.35;;
16870;SDS011;8552;48.120;-1.456;2023-05-23T12:41:25;9.85;;;7.15;;
16870;SDS011;8552;48.120;-1.456;2023-05-23T12:43:54;11.23;;;7.40;;
16870;SDS011;8552;48.120;-1.456;2023-05-23T12:46:23;11.75;;;7.65;;
16870;SDS011;8552;48.120;-1.456;2023-05-23T12:48:54;11.02;;;7.10;;
16870;SDS011;8552;48.120;-1.456;2023-05-23T12:51:21;13.82;;;7.80;;
16870;SDS011;8552;48.120;-1.456;2023-05-23T12:53:47;12.75;;;8.82;;
16870;SDS011;8552;48.120;-1.456;2023-05-23T12:56:14;15.48;;;9.05;;
16870;SDS011;8552;48.120;-1.456;2023-05-23T12:58:40;12.02;;;8.80;;
16870;SDS011;8552;48.120;-1.456;2023-05-23T13:01:06;11.32;;;8.23;;
16870;SDS011;8552;48.120;-1.456;2023-05-23T13:03:32;10.35;;;7.35;;
16870;SDS011;8552;48.120;-1.456;2023-05-23T13:05:58;12.90;;;8.80;;
16870;SDS011;8552;48.120;-1.456;2023-05-23T13:08:25;11.05;;;7.50;;
16870;SDS011;8552;48.120;-1.456;2023-05-23T13:10:54;9.90;;;8.10;;
16870;SDS011;8552;48.120;-1.456;2023-05-23T13:13:20;10.02;;;7.45;;
16870;SDS011;8552;48.120;-1.456;2023-05-23T13:15:46;9.65;;;7.55;;
16870;SDS011;8552;48.120;-1.456;2023-05-23T13:18:13;10.75;;;8.40;;
16870;SDS011;8552;48.120;-1.456;2023-05-23T13:20:39;12.02;;;7.60;;
16870;SDS011;8552;48.120;-1.456;2023-05-23T13:23:06;10.15;;;7.18;;
16870;SDS011;8552;48.120;-1.456;2023-05-23T13:25:33;9.95;;;7.90;;
16870;SDS011;8552;48.120;-1.456;2023-05-23T13:27:59;11.20;;;7.03;;
16870;SDS011;8552;48.120;-1.456;2023-05-23T13:30:26;10.27;;;7.10;;
16870;SDS011;8552;48.120;-1.456;2023-05-23T13:32:52;12.93;;;6.95;;
16870;SDS011;8552;48.120;-1.456;2023-05-23T13:35:18;9.10;;;7.00;;
16870;SDS011;8552;48.120;-1.456;2023-05-23T13:37:44;7.75;;;6.50;;
16870;SDS011;8552;48.120;-1.456;2023-05-23T13:40:11;10.48;;;6.97;;
16870;SDS011;8552;48.120;-1.456;2023-05-23T13:42:38;9.57;;;6.88;;
16870;SDS011;8552;48.120;-1.456;2023-05-23T13:45:04;7.47;;;5.82;;
16870;SDS011;8552;48.120;-1.456;2023-05-23T13:47:30;9.48;;;7.20;;
16870;SDS011;8552;48.120;-1.456;2023-05-23T13:49:56;8.27;;;6.82;;
16870;SDS011;8552;48.120;-1.456;2023-05-23T13:52:23;9.23;;;6.32;;
16870;SDS011;8552;48.120;-1.456;2023-05-23T13:54:49;8.90;;;6.15;;
16870;SDS011;8552;48.120;-1.456;2023-05-23T13:57:15;9.18;;;5.68;;
16870;SDS011;8552;48.120;-1.456;2023-05-23T13:59:41;6.90;;;5.88;;
16870;SDS011;8552;48.120;-1.456;2023-05-23T14:02:07;9.23;;;5.78;;
16870;SDS011;8552;48.120;-1.456;2023-05-23T14:04:33;9.35;;;6.15;;
16870;SDS011;8552;48.120;-1.456;2023-05-23T14:07:00;9.77;;;5.35;;
16870;SDS011;8552;48.120;-1.456;2023-05-23T14:09:26;7.30;;;5.00;;
16870;SDS011;8552;48.120;-1.456;2023-05-23T14:11:52;10.27;;;5.20;;
16870;SDS011;8552;48.120;-1.456;2023-05-23T14:14:18;7.72;;;4.90;;
16870;SDS011;8552;48.120;-1.456;2023-05-23T14:16:44;6.70;;;4.70;;
16870;SDS011;8552;48.120;-1.456;2023-05-23T14:19:10;8.63;;;4.50;;
16870;SDS011;8552;48.120;-1.456;2023-05-23T14:21:36;7.43;;;4.63;;
16870;SDS011;8552;48.120;-1.456;2023-05-23T14:24:02;9.18;;;5.00;;
16870;SDS011;8552;48.120;-1.456;2023-05-23T14:26:29;7.13;;;4.57;;
16870;SDS011;8552;48.120;-1.456;2023-05-23T14:28:55;9.82;;;4.85;;
16870;SDS011;8552;48.120;-1.456;2023-05-23T14:31:21;8.88;;;4.68;;
16870;SDS011;8552;48.120;-1.456;2023-05-23T14:33:47;6.45;;;4.40;;
16870;SDS011;8552;48.120;-1.456;2023-05-23T14:36:14;7.65;;;4.63;;
16870;SDS011;8552;48.120;-1.456;2023-05-23T14:38:40;9.70;;;4.63;;
16870;SDS011;8552;48.120;-1.456;2023-05-23T14:41:09;7.57;;;4.60;;
16870;SDS011;8552;48.120;-1.456;2023-05-23T14:43:35;5.68;;;4.03;;
16870;SDS011;8552;48.120;-1.456;2023-05-23T14:46:01;6.35;;;3.92;;
16870;SDS011;8552;48.120;-1.456;2023-05-23T14:48:27;5.15;;;3.60;;
16870;SDS011;8552;48.120;-1.456;2023-05-23T14:50:53;6.65;;;3.95;;
16870;SDS011;8552;48.120;-1.456;2023-05-23T14:53:19;7.15;;;3.80;;
16870;SDS011;8552;48.120;-1.456;2023-05-23T14:55:47;9.25;;;3.17;;
16870;SDS011;8552;48.120;-1.456;2023-05-23T14:58:13;6.38;;;3.92;;
16870;SDS011;8552;48.120;-1.456;2023-05-23T15:00:39;7.90;;;2.80;;
16870;SDS011;8552;48.120;-1.456;2023-05-23T15:03:06;6.57;;;3.65;;